createdAt,value
2022-12-23T00:01:33.523Z,73.95
2022-12-23T00:04:03.755Z,74.59
2022-12-23T00:06:34.171Z,74.68
2022-12-23T00:09:03.792Z,74.24
2022-12-23T00:15:36.257Z,75.78
2022-12-23T00:18:06.750Z,75.44
2022-12-23T00:20:36.906Z,75.30
2022-12-23T00:23:07.613Z,75.53
2022-12-23T00:25:45.687Z,75.44
2022-12-23T00:28:24.770Z,76.32
2022-12-23T00:31:09.116Z,76.22
2022-12-23T00:33:42.289Z,76.39
2022-12-23T00:36:32.259Z,75.98
2022-12-23T00:39:20.639Z,76.56
2022-12-23T00:42:08.845Z,76.52
2022-12-23T00:44:39.080Z,76.24
2022-12-23T00:47:08.868Z,76.05
2022-12-23T00:49:44.964Z,76.33
2022-12-23T00:52:19.556Z,76.49
2022-12-23T00:54:49.728Z,76.39
2022-12-23T00:57:19.658Z,76.36
2022-12-23T00:59:49.334Z,75.81
2022-12-23T01:02:37.331Z,76.55
2022-12-23T01:05:26.217Z,76.78
2022-12-23T01:07:57.016Z,77.30
2022-12-23T01:10:27.366Z,77.57
2022-12-23T01:12:57.512Z,78.02
2022-12-23T01:15:27.966Z,78.18
2022-12-23T01:17:58.206Z,77.90
2022-12-23T01:20:28.318Z,77.75
2022-12-23T01:22:58.404Z,77.92
2022-12-23T01:25:28.721Z,78.01
2022-12-23T01:27:58.897Z,78.33
2022-12-23T01:30:29.544Z,77.93
2022-12-23T01:32:59.801Z,78.04
2022-12-23T01:35:29.856Z,78.33
2022-12-23T01:37:59.550Z,77.26
2022-12-23T01:40:29.529Z,78.32
2022-12-23T01:42:59.641Z,78.43
2022-12-23T01:45:34.920Z,77.97
2022-12-23T01:48:23.537Z,77.84
2022-12-23T01:50:56.447Z,77.36
2022-12-23T01:53:33.043Z,77.75
2022-12-23T01:56:06.245Z,78.48
2022-12-23T01:58:40.538Z,78.05
2022-12-23T02:01:30.207Z,78.25
2022-12-23T02:04:08.859Z,78.28
2022-12-23T02:07:02.881Z,78.12
2022-12-23T02:09:36.214Z,77.74
2022-12-23T02:12:27.550Z,78.00
2022-12-23T02:15:33.606Z,77.33
2022-12-23T02:18:37.260Z,77.15
2022-12-23T02:21:26.580Z,76.74
2022-12-23T02:24:06.081Z,77.41
2022-12-23T02:27:14.382Z,76.44
2022-12-23T02:30:08.287Z,76.39
2022-12-23T02:33:00.762Z,76.69
2022-12-23T02:35:48.604Z,76.25
2022-12-23T02:38:31.217Z,76.37
2022-12-23T02:41:10.857Z,75.33
2022-12-23T02:43:48.598Z,77.04
2022-12-23T02:46:33.443Z,76.66
2022-12-23T02:49:44.370Z,76.76
2022-12-23T02:52:20.031Z,76.15
2022-12-23T02:54:57.360Z,76.99
2022-12-23T02:57:32.450Z,75.95
2022-12-23T03:00:04.620Z,75.92
2022-12-23T03:02:40.999Z,75.92
2022-12-23T03:05:34.865Z,76.33
2022-12-23T03:08:08.712Z,76.56
2022-12-23T03:11:07.084Z,76.43
2022-12-23T03:13:53.220Z,76.11
2022-12-23T03:16:51.976Z,76.58
2022-12-23T03:19:28.227Z,76.84
2022-12-23T03:22:17.303Z,77.00
2022-12-23T03:24:56.383Z,76.45
2022-12-23T03:27:34.950Z,76.62
2022-12-23T03:30:20.439Z,76.80
2022-12-23T03:33:36.825Z,77.74
2022-12-23T03:36:17.121Z,77.68
2022-12-23T03:38:47.868Z,77.63
2022-12-23T03:41:27.488Z,77.92
2022-12-23T03:44:17.802Z,78.61
2022-12-23T03:46:58.052Z,78.03
2022-12-23T03:49:41.174Z,77.97
2022-12-23T03:52:21.912Z,78.38
2022-12-23T03:55:03.401Z,78.41
2022-12-23T03:57:46.470Z,77.41
2022-12-23T04:00:16.854Z,78.46
2022-12-23T04:02:59.650Z,78.35
2022-12-23T04:05:34.943Z,79.24
2022-12-23T04:08:11.075Z,78.42
2022-12-23T04:10:41.559Z,78.41
2022-12-23T04:13:11.910Z,78.11
2022-12-23T04:15:43.834Z,78.29
2022-12-23T04:18:14.388Z,78.69
2022-12-23T04:20:44.566Z,79.04
2022-12-23T04:23:14.844Z,79.28
2022-12-23T04:25:45.106Z,80.01
2022-12-23T04:28:15.236Z,80.45
2022-12-23T04:30:45.613Z,81.27
2022-12-23T04:33:15.879Z,80.78
2022-12-23T04:35:45.511Z,80.41
2022-12-23T04:38:15.850Z,81.05
2022-12-23T04:40:49.172Z,81.60
2022-12-23T04:43:19.365Z,81.75
2022-12-23T04:45:53.049Z,81.87
2022-12-23T04:48:23.368Z,81.48
2022-12-23T04:50:53.108Z,80.79
2022-12-23T04:53:23.259Z,81.25
2022-12-23T04:55:53.648Z,80.98
2022-12-23T04:58:26.252Z,81.60
2022-12-23T05:01:25.582Z,81.13
2022-12-23T05:03:55.831Z,81.92
2022-12-23T05:06:25.861Z,81.83
2022-12-23T05:08:56.082Z,81.83
2022-12-23T05:11:26.285Z,82.07
2022-12-23T05:13:56.558Z,82.31
2022-12-23T05:16:26.352Z,81.19
2022-12-23T05:18:56.260Z,81.41
2022-12-23T05:21:27.409Z,81.74
2022-12-23T05:23:58.096Z,81.86
2022-12-23T05:26:28.328Z,81.90
2022-12-23T05:28:58.631Z,81.91
2022-12-23T05:31:28.406Z,80.95
2022-12-23T05:34:04.035Z,81.51
2022-12-23T05:36:36.538Z,82.26
2022-12-23T05:39:06.986Z,82.12
2022-12-23T05:41:37.172Z,83.04
2022-12-23T05:44:07.407Z,82.11
2022-12-23T05:46:37.875Z,82.15
2022-12-23T05:49:08.868Z,82.39
2022-12-23T05:51:38.483Z,82.25
2022-12-23T05:54:08.297Z,82.95
2022-12-23T05:56:38.452Z,82.66
2022-12-23T05:59:08.618Z,83.23
2022-12-23T06:01:38.944Z,83.80
2022-12-23T06:04:09.351Z,83.66
2022-12-23T06:06:39.733Z,84.13
2022-12-23T06:09:10.508Z,83.52
2022-12-23T06:11:40.601Z,84.65
2022-12-23T06:14:11.629Z,83.59
2022-12-23T06:16:41.979Z,83.99
2022-12-23T06:19:12.221Z,83.62
2022-12-23T06:21:42.445Z,83.70
2022-12-23T06:24:12.769Z,83.09
2022-12-23T06:26:43.297Z,82.59
2022-12-23T06:29:13.631Z,82.84
2022-12-23T06:31:43.969Z,83.18
2022-12-23T06:34:13.769Z,83.32
2022-12-23T06:36:43.701Z,84.79
2022-12-23T06:39:14.002Z,84.16
2022-12-23T06:41:44.225Z,83.89
2022-12-23T06:44:14.503Z,84.75
2022-12-23T06:46:44.694Z,83.54
2022-12-23T06:49:14.686Z,83.71
2022-12-23T06:51:44.348Z,83.53
2022-12-23T06:54:14.590Z,83.84
2022-12-23T06:56:44.764Z,83.38
2022-12-23T06:59:14.919Z,84.32
2022-12-23T07:01:45.198Z,84.54
2022-12-23T07:04:15.477Z,85.00
2022-12-23T07:06:45.696Z,84.50
2022-12-23T07:10:10.957Z,83.80
2022-12-23T07:12:46.005Z,84.26
2022-12-23T07:15:19.284Z,84.43
2022-12-23T07:17:49.484Z,83.76
2022-12-23T07:20:19.846Z,84.42
2022-12-23T07:22:51.468Z,84.23
2022-12-23T07:25:21.561Z,84.73
2022-12-23T07:27:57.999Z,84.79
2022-12-23T07:30:28.649Z,84.59
2022-12-23T07:32:58.814Z,85.08
2022-12-23T07:35:28.864Z,86.06
2022-12-23T07:37:58.568Z,84.66
2022-12-23T07:40:29.221Z,85.32
2022-12-23T07:43:00.529Z,84.63
2022-12-23T07:45:31.530Z,84.97
2022-12-23T07:48:03.277Z,85.03
2022-12-23T07:50:33.463Z,85.64
2022-12-23T07:53:03.662Z,85.75
2022-12-23T07:55:33.874Z,85.87
2022-12-23T07:58:04.071Z,86.21
2022-12-23T08:00:34.096Z,85.85
2022-12-23T08:03:04.547Z,85.82
2022-12-23T08:05:34.922Z,85.37
2022-12-23T08:08:04.637Z,84.89
2022-12-23T08:10:34.543Z,85.81
2022-12-23T08:13:04.847Z,85.53
2022-12-23T08:15:34.495Z,85.14
2022-12-23T08:18:04.317Z,86.19
2022-12-23T08:20:34.553Z,86.62
2022-12-23T08:23:04.690Z,86.28
2022-12-23T08:25:34.823Z,86.08
2022-12-23T08:28:04.715Z,85.94
2022-12-23T08:30:35.074Z,86.06
2022-12-23T08:33:05.131Z,86.35
2022-12-23T08:35:35.361Z,86.84
2022-12-23T08:38:05.507Z,85.83
2022-12-23T08:40:35.887Z,86.53
2022-12-23T08:43:06.130Z,86.35
2022-12-23T08:45:40.085Z,86.43
2022-12-23T08:48:10.389Z,86.30
2022-12-23T08:50:40.881Z,85.52
2022-12-23T08:53:11.581Z,85.80
2022-12-23T08:55:44.225Z,86.30
2022-12-23T08:58:16.001Z,86.23
2022-12-23T09:00:46.224Z,85.96
2022-12-23T09:03:16.487Z,85.65
2022-12-23T09:05:46.264Z,84.95
2022-12-23T09:08:16.317Z,85.68
2022-12-23T09:10:46.681Z,85.44
2022-12-23T09:13:25.006Z,84.53
2022-12-23T09:15:58.214Z,84.70
2022-12-23T09:18:31.053Z,84.03
2022-12-23T09:21:05.963Z,83.84
2022-12-23T09:23:36.464Z,83.73
2022-12-23T09:26:07.403Z,84.65
2022-12-23T09:28:37.629Z,84.09
2022-12-23T09:31:12.634Z,84.07
2022-12-23T09:33:42.957Z,83.57
2022-12-23T09:36:12.757Z,83.00
2022-12-23T09:38:42.776Z,83.10
2022-12-23T09:41:31.143Z,82.79
2022-12-23T09:44:07.217Z,82.50
2022-12-23T09:46:39.820Z,82.45
2022-12-23T09:49:15.229Z,82.51
2022-12-23T09:51:46.958Z,81.76
2022-12-23T09:54:31.132Z,82.77
2022-12-23T09:57:06.712Z,81.95
2022-12-23T10:00:21.402Z,81.51
2022-12-23T10:03:05.182Z,81.56
2022-12-23T10:06:03.923Z,80.19
2022-12-23T10:08:40.108Z,81.65
2022-12-23T10:11:24.045Z,80.48
2022-12-23T10:14:05.527Z,80.48
2022-12-23T10:16:44.346Z,79.56
2022-12-23T10:19:33.737Z,79.31
2022-12-23T10:22:17.789Z,78.97
2022-12-23T10:24:49.924Z,78.68
2022-12-23T10:27:38.516Z,77.68
2022-12-23T10:30:51.567Z,76.90
2022-12-23T10:33:28.993Z,77.41
2022-12-23T10:36:24.041Z,76.70
2022-12-23T10:38:57.053Z,77.13
2022-12-23T10:41:59.463Z,75.71
2022-12-23T10:45:09.588Z,75.51
2022-12-23T10:48:07.407Z,75.13
2022-12-23T10:51:03.302Z,74.98
2022-12-23T10:54:00.755Z,74.87
2022-12-23T10:56:32.215Z,74.23
2022-12-23T10:59:03.429Z,73.67
2022-12-23T11:01:34.221Z,73.48
2022-12-23T11:04:15.659Z,73.94
2022-12-23T11:07:10.511Z,72.52
2022-12-23T11:09:47.508Z,71.29
2022-12-23T11:12:23.378Z,71.06
2022-12-23T11:14:58.781Z,70.92
2022-12-23T11:17:32.355Z,71.69
2022-12-23T11:20:13.307Z,69.87
2022-12-23T11:23:03.685Z,69.87
2022-12-23T11:25:45.133Z,70.13
2022-12-23T11:28:23.377Z,70.11
2022-12-23T11:31:00.567Z,69.52
2022-12-23T11:33:39.216Z,68.40
2022-12-23T11:36:15.434Z,68.79
2022-12-23T11:39:04.213Z,68.02
2022-12-23T11:41:46.186Z,67.12
2022-12-23T11:44:41.698Z,67.62
2022-12-23T11:47:26.763Z,66.30
2022-12-23T11:50:00.024Z,65.91
2022-12-23T11:52:32.854Z,66.44
2022-12-23T11:55:05.632Z,65.63
2022-12-23T11:57:43.677Z,65.99
2022-12-23T12:00:26.661Z,66.01
2022-12-23T12:03:00.537Z,66.21
2022-12-23T12:05:42.184Z,65.84
2022-12-23T12:08:16.436Z,65.40
2022-12-23T12:10:47.065Z,64.60
2022-12-23T12:13:41.820Z,64.62
2022-12-23T12:16:15.145Z,64.24
2022-12-23T12:18:53.638Z,65.06
2022-12-23T12:21:30.839Z,63.04
2022-12-23T12:24:19.206Z,63.42
2022-12-23T12:26:56.955Z,62.99
2022-12-23T12:29:47.492Z,62.23
2022-12-23T12:32:36.968Z,62.75
2022-12-23T12:35:44.583Z,62.49
2022-12-23T12:38:28.990Z,63.05
2022-12-23T12:41:34.270Z,60.21
2022-12-23T12:44:32.099Z,61.64
2022-12-23T12:47:36.718Z,60.98
2022-12-23T12:50:23.583Z,62.00
2022-12-23T12:52:55.965Z,61.28
2022-12-23T12:55:34.833Z,59.83
2022-12-23T12:58:05.085Z,60.31
2022-12-23T13:00:51.930Z,59.65
2022-12-23T13:03:31.606Z,60.56
2022-12-23T13:06:15.191Z,60.83
2022-12-23T13:09:11.230Z,59.73
2022-12-23T13:11:49.771Z,57.64
2022-12-23T13:14:48.836Z,58.19
2022-12-23T13:17:40.117Z,58.54
2022-12-23T13:20:34.523Z,58.54
2022-12-23T13:23:41.657Z,59.05
2022-12-23T13:26:24.073Z,57.61
2022-12-23T13:29:05.680Z,56.70
2022-12-23T13:31:35.895Z,58.03
2022-12-23T13:34:26.615Z,56.27
2022-12-23T13:37:02.124Z,55.46
2022-12-23T13:39:50.624Z,55.87
2022-12-23T13:42:33.790Z,56.25
2022-12-23T13:45:05.482Z,54.14
2022-12-23T13:48:05.437Z,56.11
2022-12-23T13:50:47.791Z,56.10
2022-12-23T13:53:26.998Z,55.79
2022-12-23T13:56:23.704Z,56.85
2022-12-23T13:58:54.735Z,55.60
2022-12-23T14:01:42.233Z,56.24
2022-12-23T14:05:04.990Z,55.72
2022-12-23T14:07:35.939Z,54.10
2022-12-23T14:10:24.553Z,56.10
2022-12-23T14:12:59.932Z,55.43
2022-12-23T14:15:40.460Z,54.15
2022-12-23T14:18:26.691Z,54.47
2022-12-23T14:21:26.463Z,55.47
2022-12-23T14:24:31.877Z,53.15
2022-12-23T14:27:38.133Z,53.46
2022-12-23T14:30:17.421Z,52.86
2022-12-23T14:33:05.335Z,53.49
2022-12-23T14:35:42.174Z,51.80
2022-12-23T14:38:12.888Z,51.83
2022-12-23T14:40:53.316Z,51.51
2022-12-23T14:43:47.720Z,51.99
2022-12-23T14:46:41.200Z,52.34
2022-12-23T14:49:38.232Z,49.28
2022-12-23T14:52:40.921Z,49.51
2022-12-23T14:55:32.608Z,50.07
2022-12-23T14:58:14.824Z,50.59
2022-12-23T15:00:50.952Z,49.58
2022-12-23T15:03:21.909Z,49.66
2022-12-23T15:05:52.551Z,48.39
2022-12-23T15:08:42.430Z,49.66
2022-12-23T15:11:22.918Z,47.97
2022-12-23T15:13:55.156Z,48.56
2022-12-23T15:16:38.260Z,49.23
2022-12-23T15:19:29.263Z,49.49
2022-12-23T15:22:21.232Z,49.02
2022-12-23T15:24:52.673Z,48.44
2022-12-23T15:27:28.428Z,48.87
2022-12-23T15:30:00.256Z,48.37
2022-12-23T15:32:31.355Z,48.80
2022-12-23T15:35:07.592Z,48.70
2022-12-23T15:37:37.914Z,49.45
2022-12-23T15:40:13.422Z,48.15
2022-12-23T15:42:50.238Z,48.34
2022-12-23T15:45:41.289Z,49.77
2022-12-23T15:48:44.298Z,49.11
2022-12-23T15:54:35.715Z,49.46
2022-12-23T15:57:06.854Z,48.01
2022-12-23T15:59:40.562Z,47.11
2022-12-23T16:05:39.338Z,47.27
2022-12-23T16:08:18.510Z,46.61
2022-12-23T16:11:18.960Z,47.72
2022-12-23T16:14:03.947Z,47.77
2022-12-23T16:16:44.070Z,47.32
2022-12-23T16:19:49.134Z,47.72
2022-12-23T16:22:39.732Z,48.50
2022-12-23T16:25:32.447Z,47.50
2022-12-23T16:28:16.303Z,47.55
2022-12-23T16:30:50.667Z,47.69
2022-12-23T16:33:40.893Z,48.19
2022-12-23T16:36:29.286Z,48.23
2022-12-23T16:39:08.626Z,46.53
2022-12-23T16:41:38.756Z,47.25
2022-12-23T16:44:08.884Z,46.75
2022-12-23T16:46:42.822Z,48.42
2022-12-23T16:49:17.960Z,46.04
2022-12-23T16:51:48.466Z,46.94
2022-12-23T16:54:20.815Z,47.63
2022-12-23T16:56:53.582Z,46.13
2022-12-23T16:59:26.104Z,46.46
2022-12-23T17:02:03.122Z,46.47
2022-12-23T17:04:33.910Z,45.96
2022-12-23T17:07:07.226Z,46.18
2022-12-23T17:09:37.337Z,45.89
2022-12-23T17:12:07.687Z,46.31
2022-12-23T17:14:37.965Z,46.61
2022-12-23T17:17:16.756Z,46.30
2022-12-23T17:19:47.097Z,45.48
2022-12-23T17:22:17.343Z,45.96
2022-12-23T17:24:47.731Z,45.91
2022-12-23T17:27:21.898Z,45.80
2022-12-23T17:29:52.270Z,45.08
2022-12-23T17:32:22.472Z,44.99
2022-12-23T17:34:52.821Z,45.80
2022-12-23T17:37:24.069Z,44.59
2022-12-23T17:39:54.299Z,44.73
2022-12-23T17:42:26.021Z,45.41
2022-12-23T17:44:56.570Z,45.48
2022-12-23T17:47:26.744Z,46.25
2022-12-23T17:49:56.930Z,45.61
2022-12-23T17:52:27.881Z,46.88
2022-12-23T17:54:58.224Z,46.43
2022-12-23T17:57:29.142Z,46.47
2022-12-23T17:59:59.357Z,46.30
2022-12-23T18:02:34.070Z,46.52
2022-12-23T18:05:04.794Z,46.80
2022-12-23T18:07:34.985Z,47.98
2022-12-23T18:10:05.448Z,47.18
2022-12-23T18:12:38.995Z,47.31
2022-12-23T18:15:22.841Z,46.92
2022-12-23T18:17:54.302Z,48.43
2022-12-23T18:20:25.894Z,46.85
2022-12-23T18:22:56.892Z,46.93
2022-12-23T18:25:28.725Z,48.26
2022-12-23T18:27:58.946Z,47.51
2022-12-23T18:30:29.256Z,46.97
2022-12-23T18:32:59.458Z,48.30
2022-12-23T18:35:35.746Z,47.38
2022-12-23T18:38:05.848Z,46.89
2022-12-23T18:40:35.987Z,47.98
2022-12-23T18:43:06.482Z,47.32
2022-12-23T18:45:41.017Z,47.37
2022-12-23T18:48:11.842Z,48.35
2022-12-23T18:50:44.167Z,47.52
2022-12-23T18:53:25.693Z,47.53
2022-12-23T18:55:56.849Z,47.22
2022-12-23T18:58:27.089Z,47.81
2022-12-23T19:00:58.047Z,48.10
2022-12-23T19:03:31.454Z,48.08
2022-12-23T19:06:07.927Z,48.28
2022-12-23T19:08:38.872Z,48.06
2022-12-23T19:11:18.505Z,49.42
2022-12-23T19:13:48.868Z,48.80
2022-12-23T19:16:23.267Z,46.95
2022-12-23T19:18:53.899Z,45.07
2022-12-23T19:21:24.084Z,45.09
2022-12-23T19:23:54.265Z,46.30
2022-12-23T19:26:24.454Z,47.66
2022-12-23T19:28:54.673Z,48.13
2022-12-23T19:31:24.970Z,48.50
2022-12-23T19:33:55.314Z,48.06
2022-12-23T19:36:25.763Z,48.90
2022-12-23T19:38:58.262Z,49.73
2022-12-23T19:41:28.475Z,50.18
2022-12-23T19:43:58.605Z,50.01
2022-12-23T19:46:28.815Z,50.97
2022-12-23T19:48:59.062Z,49.75
2022-12-23T19:51:29.211Z,48.99
2022-12-23T19:53:59.374Z,49.10
2022-12-23T19:56:31.641Z,48.80
2022-12-23T19:59:01.887Z,47.59
2022-12-23T20:01:32.167Z,47.86
2022-12-23T20:04:02.512Z,46.25
2022-12-23T20:06:35.618Z,46.13
2022-12-23T20:09:07.576Z,46.96
2022-12-23T20:11:43.495Z,45.83
2022-12-23T20:14:13.935Z,48.08
2022-12-23T20:16:44.866Z,45.07
2022-12-23T20:19:15.062Z,46.21
2022-12-23T20:21:48.766Z,45.06
2022-12-23T20:24:19.014Z,46.82
2022-12-23T20:26:49.432Z,46.37
2022-12-23T20:29:19.593Z,45.85
2022-12-23T20:31:49.846Z,46.25
2022-12-23T20:34:20.187Z,46.37
2022-12-23T20:36:50.612Z,46.82
2022-12-23T20:39:20.824Z,47.26
2022-12-23T20:41:50.832Z,47.93
2022-12-23T20:44:34.548Z,48.60
2022-12-23T20:47:07.373Z,48.91
2022-12-23T20:49:37.856Z,50.03
2022-12-23T20:52:08.148Z,50.32
2022-12-23T20:54:38.346Z,50.66
2022-12-23T20:57:08.543Z,51.36
2022-12-23T20:59:38.710Z,50.67
2022-12-23T21:02:08.817Z,52.27
2022-12-23T21:04:39.314Z,52.99
2022-12-23T21:07:09.933Z,52.78
2022-12-23T21:09:40.137Z,52.94
2022-12-23T21:12:10.457Z,53.79
2022-12-23T21:14:40.711Z,54.24
2022-12-23T21:17:10.940Z,54.21
2022-12-23T21:19:40.947Z,54.80
2022-12-23T21:22:11.211Z,55.22
2022-12-23T21:24:41.573Z,55.07
2022-12-23T21:27:11.821Z,55.69
2022-12-23T21:29:41.994Z,56.66
2022-12-23T21:32:12.217Z,57.31
2022-12-23T21:34:42.433Z,58.22
2022-12-23T21:37:12.762Z,58.70
2022-12-23T21:39:43.094Z,59.16
2022-12-23T21:42:13.424Z,59.92
2022-12-23T21:44:43.516Z,60.18
2022-12-23T21:47:13.903Z,60.24
2022-12-23T21:49:44.977Z,59.42
2022-12-23T21:52:15.200Z,60.61
2022-12-23T21:54:45.465Z,61.97
2022-12-23T21:57:15.779Z,62.35
2022-12-23T21:59:45.922Z,63.10
2022-12-23T22:02:19.149Z,63.52
2022-12-23T22:04:49.514Z,64.24
2022-12-23T22:07:20.059Z,65.06
2022-12-23T22:09:50.289Z,64.83
2022-12-23T22:12:20.491Z,65.64
2022-12-23T22:14:50.716Z,65.68
2022-12-23T22:17:20.970Z,66.43
2022-12-23T22:19:51.097Z,66.37
2022-12-23T22:22:21.479Z,66.68
2022-12-23T22:24:51.742Z,66.95
2022-12-23T22:27:22.028Z,67.29
2022-12-23T22:29:52.417Z,67.19
2022-12-23T22:32:22.590Z,67.67
2022-12-23T22:34:52.886Z,67.39
2022-12-23T22:37:23.176Z,67.77
2022-12-23T22:39:53.366Z,68.05
2022-12-23T22:42:23.606Z,67.93
2022-12-23T22:44:53.839Z,68.21
2022-12-23T22:47:24.257Z,67.32
2022-12-23T22:49:54.454Z,67.82
2022-12-23T22:52:24.783Z,67.66
2022-12-23T22:54:54.969Z,66.41
2022-12-23T22:57:25.115Z,66.38
2022-12-23T22:59:55.266Z,66.58
2022-12-23T23:02:27.229Z,67.34
2022-12-23T23:04:57.534Z,67.96
2022-12-23T23:07:28.114Z,69.11
2022-12-23T23:09:58.309Z,69.12
2022-12-23T23:12:28.603Z,69.05
2022-12-23T23:14:58.866Z,69.61
2022-12-23T23:17:31.048Z,70.59
2022-12-23T23:20:01.352Z,71.37
2022-12-23T23:22:31.711Z,72.20
2022-12-23T23:25:02.061Z,72.56
2022-12-23T23:27:32.399Z,73.26
2022-12-23T23:30:02.411Z,72.96
2022-12-23T23:32:32.733Z,73.67
2022-12-23T23:35:08.558Z,73.65
2022-12-23T23:37:40.799Z,74.22
2022-12-23T23:40:10.655Z,73.06
2022-12-23T23:42:40.848Z,75.12
2022-12-23T23:45:11.651Z,74.59
2022-12-23T23:47:42.021Z,74.42
2022-12-23T23:50:12.493Z,74.67
2022-12-23T23:52:42.501Z,74.52
2022-12-23T23:55:13.056Z,74.83
2022-12-23T23:57:43.395Z,75.09
